Check out our new PWSWeather beta!
PWSweather.com
Personal Weather Stations
Station Observations
PICKERING
North Yorkshire, PickeringGB

North YorkshirePickeringGB

Lat: 54.2494, Lon: -0.7725

Elevation: 192

Station Type: Oregon Scientific WMR100

High Low Average
Temperature 73.0°F22.8°C 51.8°F11.0°C 60.8°F16.0°C
Dew Point 59.0°F15.0°C 42.8°F6.0°C 51.2°F10.7°C
Winds 12.2 mph 19.6 kmh Calm Calm 4.0 mph SW6.4 kmh SW
Wind Gusts 19.5 mph31.4 kmh -- 7.0 mph11.3 kmh
Humidity 89% 50% 71%
Pressure 29.92 in1013.2 mb 29.53 in1000.0 mb -
Precipitation 0.11 in2.8 mm - -
Hour Temp Dew Point Humidity Winds Wind Gusts Pressure Precip Precip Rate Daily Precip Total
12:00 AM 58.6°F14.8°C 55.4°F13.0°C 87% 0.3 mph S0.5 kmh S 1.3 mph2.1 kmh 29.56 in1001.0 mb 0.06 in1.5 mm 0.00 in0.0 mm 0.06 in1.5 mm
12:05 AM 58.6°F14.8°C 55.4°F13.0°C 87% 0.1 mph S0.2 kmh S 1.1 mph1.8 kmh 29.56 in1001.0 mb 0.06 in1.5 mm 0.00 in0.0 mm 0.06 in1.5 mm
12:10 AM 58.6°F14.8°C 55.4°F13.0°C 88% Calm Calm -- 29.53 in1000.0 mb 0.06 in1.5 mm 0.00 in0.0 mm 0.06 in1.5 mm
12:15 AM 58.6°F14.8°C 55.4°F13.0°C 88% 0.1 mph S0.2 kmh S 0.9 mph1.4 kmh 29.53 in1000.0 mb 0.11 in2.8 mm 0.60 in15.2 mm 0.11 in2.8 mm
12:20 AM 58.6°F14.8°C 55.4°F13.0°C 88% 0.1 mph S0.2 kmh S 0.9 mph1.4 kmh 29.53 in1000.0 mb 0.11 in2.8 mm 0.00 in0.0 mm 0.11 in2.8 mm
12:25 AM 58.6°F14.8°C 55.4°F13.0°C 88% Calm Calm -- 29.53 in1000.0 mb 0.11 in2.8 mm 0.00 in0.0 mm 0.11 in2.8 mm
12:30 AM 58.6°F14.8°C 55.4°F13.0°C 88% Calm Calm -- 29.53 in1000.0 mb 0.11 in2.8 mm 0.00 in0.0 mm 0.11 in2.8 mm
12:35 AM 58.6°F14.8°C 55.4°F13.0°C 88% Calm Calm -- 29.53 in1000.0 mb 0.11 in2.8 mm 0.00 in0.0 mm 0.11 in2.8 mm
12:40 AM 58.6°F14.8°C 55.4°F13.0°C 88% Calm Calm -- 29.53 in1000.0 mb 0.11 in2.8 mm 0.00 in0.0 mm 0.11 in2.8 mm
12:45 AM 58.6°F14.8°C 55.4°F13.0°C 88% Calm Calm -- 29.53 in1000.0 mb 0.11 in2.8 mm 0.00 in0.0 mm 0.11 in2.8 mm
12:50 AM 58.6°F14.8°C 55.4°F13.0°C 88% Calm Calm -- 29.53 in1000.0 mb 0.11 in2.8 mm 0.00 in0.0 mm 0.11 in2.8 mm
12:55 AM 58.8°F14.9°C 55.4°F13.0°C 88% 0.6 mph S1.0 kmh S 2.5 mph4.0 kmh 29.53 in1000.0 mb 0.06 in1.5 mm 0.00 in0.0 mm 0.11 in2.8 mm
01:00 AM 58.8°F14.9°C 55.4°F13.0°C 88% 0.9 mph S1.4 kmh S 2.5 mph4.0 kmh 29.53 in1000.0 mb 0.06 in1.5 mm 0.00 in0.0 mm 0.11 in2.8 mm
01:05 AM 58.8°F14.9°C 55.4°F13.0°C 88% 1.5 mph SW2.4 kmh SW 3.4 mph5.5 kmh 29.53 in1000.0 mb 0.06 in1.5 mm 0.00 in0.0 mm 0.11 in2.8 mm
01:10 AM 59.0°F15.0°C 55.4°F13.0°C 88% 2.1 mph SW3.4 kmh SW 3.4 mph5.5 kmh 29.53 in1000.0 mb 0.06 in1.5 mm 0.00 in0.0 mm 0.11 in2.8 mm
01:15 AM 59.0°F15.0°C 55.4°F13.0°C 88% 1.4 mph SW2.3 kmh SW 3.4 mph5.5 kmh 29.53 in1000.0 mb 0.00 in0.0 mm 0.00 in0.0 mm 0.11 in2.8 mm
01:20 AM 58.8°F14.9°C 55.4°F13.0°C 88% 1.3 mph SW2.1 kmh SW 2.9 mph4.7 kmh 29.53 in1000.0 mb 0.00 in0.0 mm 0.00 in0.0 mm 0.11 in2.8 mm
01:25 AM 58.8°F14.9°C 55.4°F13.0°C 88% 1.8 mph SW2.9 kmh SW 5.4 mph8.7 kmh 29.53 in1000.0 mb 0.00 in0.0 mm 0.00 in0.0 mm 0.11 in2.8 mm
01:30 AM 58.8°F14.9°C 55.4°F13.0°C 87% 2.2 mph WSW3.5 kmh WSW 5.4 mph8.7 kmh 29.53 in1000.0 mb 0.00 in0.0 mm 0.00 in0.0 mm 0.11 in2.8 mm
01:35 AM 58.8°F14.9°C 55.4°F13.0°C 86% 3.0 mph WSW4.8 kmh WSW 7.8 mph12.6 kmh 29.53 in1000.0 mb 0.00 in0.0 mm 0.00 in0.0 mm 0.11 in2.8 mm
01:40 AM 58.8°F14.9°C 55.4°F13.0°C 86% 4.0 mph WSW6.4 kmh WSW 7.8 mph12.6 kmh 29.53 in1000.0 mb 0.00 in0.0 mm 0.00 in0.0 mm 0.11 in2.8 mm
01:45 AM 58.6°F14.8°C 55.4°F13.0°C 85% 5.1 mph WSW8.2 kmh WSW 8.7 mph14.0 kmh 29.53 in1000.0 mb 0.00 in0.0 mm 0.00 in0.0 mm 0.11 in2.8 mm
01:50 AM 58.5°F14.7°C 55.4°F13.0°C 85% 5.3 mph W8.5 kmh W 8.7 mph14.0 kmh 29.53 in1000.0 mb 0.00 in0.0 mm 0.00 in0.0 mm 0.11 in2.8 mm
01:55 AM 58.3°F14.6°C 55.4°F13.0°C 85% 4.4 mph W7.1 kmh W 6.7 mph10.8 kmh 29.53 in1000.0 mb 0.00 in0.0 mm 0.00 in0.0 mm 0.11 in2.8 mm
02:00 AM 57.9°F14.4°C 53.6°F12.0°C 85% 4.0 mph WSW6.4 kmh WSW 6.0 mph9.7 kmh 29.53 in1000.0 mb 0.00 in0.0 mm 0.00 in0.0 mm 0.11 in2.8 mm
02:05 AM 57.7°F14.3°C 53.6°F12.0°C 86% 3.5 mph WSW5.6 kmh WSW 6.0 mph9.7 kmh 29.53 in1000.0 mb 0.00 in0.0 mm 0.00 in0.0 mm 0.11 in2.8 mm
02:10 AM 57.7°F14.3°C 53.6°F12.0°C 85% 4.2 mph WSW6.8 kmh WSW 6.0 mph9.7 kmh 29.53 in1000.0 mb 0.00 in0.0 mm 0.00 in0.0 mm 0.11 in2.8 mm
02:15 AM 57.6°F14.2°C 53.6°F12.0°C 85% 4.3 mph WSW6.9 kmh WSW 6.0 mph9.7 kmh 29.53 in1000.0 mb 0.00 in0.0 mm 0.00 in0.0 mm 0.11 in2.8 mm
02:20 AM 57.2°F14.0°C 53.6°F12.0°C 85% 3.5 mph WSW5.6 kmh WSW 5.6 mph9.0 kmh 29.53 in1000.0 mb 0.00 in0.0 mm 0.00 in0.0 mm 0.11 in2.8 mm
02:25 AM 57.2°F14.0°C 53.6°F12.0°C 85% 3.0 mph SW4.8 kmh SW 4.9 mph7.9 kmh 29.53 in1000.0 mb 0.00 in0.0 mm 0.00 in0.0 mm 0.11 in2.8 mm
02:30 AM 56.8°F13.8°C 53.6°F12.0°C 85% 2.0 mph WSW3.2 kmh WSW 3.8 mph6.1 kmh 29.53 in1000.0 mb 0.00 in0.0 mm 0.00 in0.0 mm 0.11 in2.8 mm
02:35 AM 56.7°F13.7°C 53.6°F12.0°C 85% 1.9 mph WSW3.1 kmh WSW 4.0 mph6.4 kmh 29.53 in1000.0 mb 0.00 in0.0 mm 0.00 in0.0 mm 0.11 in2.8 mm
02:40 AM 56.5°F13.6°C 53.6°F12.0°C 85% 2.2 mph WSW3.5 kmh WSW 4.0 mph6.4 kmh 29.53 in1000.0 mb 0.00 in0.0 mm 0.00 in0.0 mm 0.11 in2.8 mm
02:45 AM 56.3°F13.5°C 53.6°F12.0°C 85% 2.3 mph WSW3.7 kmh WSW 4.0 mph6.4 kmh 29.53 in1000.0 mb 0.00 in0.0 mm 0.00 in0.0 mm 0.11 in2.8 mm
02:50 AM 56.1°F13.4°C 51.8°F11.0°C 85% 2.7 mph WSW4.3 kmh WSW 3.8 mph6.1 kmh 29.53 in1000.0 mb 0.00 in0.0 mm 0.00 in0.0 mm 0.11 in2.8 mm
02:55 AM 55.9°F13.3°C 51.8°F11.0°C 85% 2.2 mph WSW3.5 kmh WSW 3.8 mph6.1 kmh 29.53 in1000.0 mb 0.00 in0.0 mm 0.00 in0.0 mm 0.11 in2.8 mm
03:00 AM 55.8°F13.2°C 51.8°F11.0°C 85% 1.8 mph WSW2.9 kmh WSW 3.4 mph5.5 kmh 29.53 in1000.0 mb 0.00 in0.0 mm 0.00 in0.0 mm 0.11 in2.8 mm
03:05 AM 55.6°F13.1°C 51.8°F11.0°C 85% 2.1 mph WSW3.4 kmh WSW 3.6 mph5.8 kmh 29.53 in1000.0 mb 0.00 in0.0 mm 0.00 in0.0 mm 0.11 in2.8 mm
03:10 AM 55.6°F13.1°C 51.8°F11.0°C 85% 1.5 mph WSW2.4 kmh WSW 3.6 mph5.8 kmh 29.53 in1000.0 mb 0.00 in0.0 mm 0.00 in0.0 mm 0.11 in2.8 mm
03:15 AM 55.4°F13.0°C 51.8°F11.0°C 85% 1.0 mph SSW1.6 kmh SSW 3.1 mph5.0 kmh 29.53 in1000.0 mb 0.00 in0.0 mm 0.00 in0.0 mm 0.11 in2.8 mm
03:20 AM 55.2°F12.9°C 51.8°F11.0°C 85% 0.7 mph S1.1 kmh S 3.1 mph5.0 kmh 29.53 in1000.0 mb 0.00 in0.0 mm 0.00 in0.0 mm 0.11 in2.8 mm
03:25 AM 55.0°F12.8°C 51.8°F11.0°C 85% 0.2 mph SW0.3 kmh SW 1.6 mph2.6 kmh 29.53 in1000.0 mb 0.00 in0.0 mm 0.00 in0.0 mm 0.11 in2.8 mm
03:30 AM 54.9°F12.7°C 51.8°F11.0°C 85% 0.2 mph WSW0.3 kmh WSW 1.3 mph2.1 kmh 29.53 in1000.0 mb 0.00 in0.0 mm 0.00 in0.0 mm 0.11 in2.8 mm
03:35 AM 54.9°F12.7°C 51.8°F11.0°C 85% 0.4 mph W0.6 kmh W 1.3 mph2.1 kmh 29.53 in1000.0 mb 0.00 in0.0 mm 0.00 in0.0 mm 0.11 in2.8 mm
03:40 AM 54.7°F12.6°C 51.8°F11.0°C 85% 0.5 mph NNW0.8 kmh NNW 1.3 mph2.1 kmh 29.53 in1000.0 mb 0.00 in0.0 mm 0.00 in0.0 mm 0.11 in2.8 mm
03:45 AM 54.7°F12.6°C 51.8°F11.0°C 86% 0.3 mph N0.5 kmh N 1.3 mph2.1 kmh 29.53 in1000.0 mb 0.00 in0.0 mm 0.00 in0.0 mm 0.11 in2.8 mm
03:50 AM 54.7°F12.6°C 51.8°F11.0°C 86% Calm Calm -- 29.53 in1000.0 mb 0.00 in0.0 mm 0.00 in0.0 mm 0.11 in2.8 mm
03:55 AM 54.7°F12.6°C 51.8°F11.0°C 86% Calm Calm -- 29.53 in1000.0 mb 0.00 in0.0 mm 0.00 in0.0 mm 0.11 in2.8 mm
04:00 AM 54.9°F12.7°C 51.8°F11.0°C 86% 0.1 mph SSW0.2 kmh SSW 0.9 mph1.4 kmh 29.53 in1000.0 mb 0.00 in0.0 mm 0.00 in0.0 mm 0.11 in2.8 mm
04:05 AM 54.9°F12.7°C 51.8°F11.0°C 86% 0.3 mph S0.5 kmh S 2.0 mph3.2 kmh 29.53 in1000.0 mb 0.00 in0.0 mm 0.00 in0.0 mm 0.11 in2.8 mm
04:10 AM 54.9°F12.7°C 51.8°F11.0°C 86% 0.6 mph S1.0 kmh S 2.5 mph4.0 kmh 29.53 in1000.0 mb 0.00 in0.0 mm 0.00 in0.0 mm 0.11 in2.8 mm
04:15 AM 55.0°F12.8°C 51.8°F11.0°C 86% 0.8 mph SW1.3 kmh SW 2.5 mph4.0 kmh 29.53 in1000.0 mb 0.00 in0.0 mm 0.00 in0.0 mm 0.11 in2.8 mm
04:20 AM 55.0°F12.8°C 51.8°F11.0°C 87% 0.6 mph SW1.0 kmh SW 2.0 mph3.2 kmh 29.53 in1000.0 mb 0.00 in0.0 mm 0.00 in0.0 mm 0.11 in2.8 mm
04:25 AM 55.0°F12.8°C 51.8°F11.0°C 87% 0.5 mph S0.8 kmh S 1.6 mph2.6 kmh 29.53 in1000.0 mb 0.00 in0.0 mm 0.00 in0.0 mm 0.11 in2.8 mm
04:30 AM 55.0°F12.8°C 51.8°F11.0°C 87% 0.6 mph SSE1.0 kmh SSE 1.6 mph2.6 kmh 29.53 in1000.0 mb 0.00 in0.0 mm 0.00 in0.0 mm 0.11 in2.8 mm
04:35 AM 55.2°F12.9°C 51.8°F11.0°C 87% 0.3 mph SE0.5 kmh SE 1.6 mph2.6 kmh 29.53 in1000.0 mb 0.00 in0.0 mm 0.00 in0.0 mm 0.11 in2.8 mm
04:40 AM 55.2°F12.9°C 51.8°F11.0°C 87% 0.1 mph ESE0.2 kmh ESE 1.1 mph1.8 kmh 29.53 in1000.0 mb 0.00 in0.0 mm 0.00 in0.0 mm 0.11 in2.8 mm
04:45 AM 55.4°F13.0°C 51.8°F11.0°C 87% 0.4 mph SE0.6 kmh SE 2.5 mph4.0 kmh 29.53 in1000.0 mb 0.00 in0.0 mm 0.00 in0.0 mm 0.11 in2.8 mm
04:50 AM 55.4°F13.0°C 51.8°F11.0°C 87% 0.7 mph SE1.1 kmh SE 2.5 mph4.0 kmh 29.53 in1000.0 mb 0.00 in0.0 mm 0.00 in0.0 mm 0.11 in2.8 mm
04:55 AM 55.4°F13.0°C 51.8°F11.0°C 88% 0.6 mph S1.0 kmh S 1.6 mph2.6 kmh 29.53 in1000.0 mb 0.00 in0.0 mm 0.00 in0.0 mm 0.11 in2.8 mm
05:00 AM 55.6°F13.1°C 51.8°F11.0°C 88% 0.5 mph SSW0.8 kmh SSW 1.6 mph2.6 kmh 29.53 in1000.0 mb 0.00 in0.0 mm 0.00 in0.0 mm 0.11 in2.8 mm
05:05 AM 55.8°F13.2°C 53.6°F12.0°C 88% 0.5 mph S0.8 kmh S 2.0 mph3.2 kmh 29.53 in1000.0 mb 0.00 in0.0 mm 0.00 in0.0 mm 0.11 in2.8 mm
05:10 AM 55.8°F13.2°C 53.6°F12.0°C 88% 0.2 mph S0.3 kmh S 2.0 mph3.2 kmh 29.53 in1000.0 mb 0.00 in0.0 mm 0.00 in0.0 mm 0.11 in2.8 mm
05:15 AM 55.8°F13.2°C 53.6°F12.0°C 88% Calm Calm -- 29.53 in1000.0 mb 0.00 in0.0 mm 0.00 in0.0 mm 0.11 in2.8 mm
05:20 AM 55.9°F13.3°C 53.6°F12.0°C 88% 0.1 mph SSE0.2 kmh SSE 2.0 mph3.2 kmh 29.53 in1000.0 mb 0.00 in0.0 mm 0.00 in0.0 mm 0.11 in2.8 mm
05:25 AM 56.1°F13.4°C 53.6°F12.0°C 88% 0.1 mph SSE0.2 kmh SSE 2.0 mph3.2 kmh 29.56 in1001.0 mb 0.00 in0.0 mm 0.00 in0.0 mm 0.11 in2.8 mm
05:30 AM 56.1°F13.4°C 53.6°F12.0°C 88% 0.3 mph W0.5 kmh W 2.2 mph3.5 kmh 29.56 in1001.0 mb 0.00 in0.0 mm 0.00 in0.0 mm 0.11 in2.8 mm
05:35 AM 56.3°F13.5°C 53.6°F12.0°C 88% 0.5 mph SSW0.8 kmh SSW 2.2 mph3.5 kmh 29.56 in1001.0 mb 0.00 in0.0 mm 0.00 in0.0 mm 0.11 in2.8 mm
05:40 AM 56.3°F13.5°C 53.6°F12.0°C 88% 0.5 mph SE0.8 kmh SE 1.6 mph2.6 kmh 29.56 in1001.0 mb 0.00 in0.0 mm 0.00 in0.0 mm 0.11 in2.8 mm
05:45 AM 56.5°F13.6°C 53.6°F12.0°C 88% 0.4 mph ESE0.6 kmh ESE 1.3 mph2.1 kmh 29.56 in1001.0 mb 0.00 in0.0 mm 0.00 in0.0 mm 0.11 in2.8 mm
05:50 AM 56.7°F13.7°C 53.6°F12.0°C 89% 0.2 mph SE0.3 kmh SE 0.9 mph1.4 kmh 29.56 in1001.0 mb 0.00 in0.0 mm 0.00 in0.0 mm 0.11 in2.8 mm
05:55 AM 56.8°F13.8°C 53.6°F12.0°C 89% 0.1 mph SSE0.2 kmh SSE 0.9 mph1.4 kmh 29.56 in1001.0 mb 0.00 in0.0 mm 0.00 in0.0 mm 0.11 in2.8 mm
06:00 AM 57.0°F13.9°C 55.4°F13.0°C 89% Calm Calm -- 29.56 in1001.0 mb 0.00 in0.0 mm 0.00 in0.0 mm 0.11 in2.8 mm
06:05 AM 57.2°F14.0°C 55.4°F13.0°C 89% 0.9 mph WSW1.4 kmh WSW 3.1 mph5.0 kmh 29.56 in1001.0 mb 0.00 in0.0 mm 0.00 in0.0 mm 0.11 in2.8 mm
06:10 AM 57.2°F14.0°C 53.6°F12.0°C 88% 2.3 mph W3.7 kmh W 4.3 mph6.9 kmh 29.56 in1001.0 mb 0.00 in0.0 mm 0.00 in0.0 mm 0.11 in2.8 mm
06:15 AM 57.6°F14.2°C 55.4°F13.0°C 88% 2.8 mph W4.5 kmh W 4.3 mph6.9 kmh 29.56 in1001.0 mb 0.00 in0.0 mm 0.00 in0.0 mm 0.11 in2.8 mm
06:20 AM 57.7°F14.3°C 55.4°F13.0°C 87% 2.7 mph WSW4.3 kmh WSW 4.3 mph6.9 kmh 29.56 in1001.0 mb 0.00 in0.0 mm 0.00 in0.0 mm 0.11 in2.8 mm
06:25 AM 57.7°F14.3°C 55.4°F13.0°C 88% 2.4 mph WSW3.9 kmh WSW 4.3 mph6.9 kmh 29.56 in1001.0 mb 0.00 in0.0 mm 0.00 in0.0 mm 0.11 in2.8 mm
06:30 AM 57.9°F14.4°C 55.4°F13.0°C 88% 1.6 mph WSW2.6 kmh WSW 2.7 mph4.3 kmh 29.56 in1001.0 mb 0.00 in0.0 mm 0.00 in0.0 mm 0.11 in2.8 mm
06:35 AM 58.1°F14.5°C 55.4°F13.0°C 88% 1.1 mph WSW1.8 kmh WSW 2.7 mph4.3 kmh 29.56 in1001.0 mb 0.00 in0.0 mm 0.00 in0.0 mm 0.11 in2.8 mm
06:40 AM 58.1°F14.5°C 55.4°F13.0°C 88% 1.0 mph WSW1.6 kmh WSW 2.7 mph4.3 kmh 29.56 in1001.0 mb 0.00 in0.0 mm 0.00 in0.0 mm 0.11 in2.8 mm
06:45 AM 58.5°F14.7°C 55.4°F13.0°C 88% 1.6 mph WSW2.6 kmh WSW 3.1 mph5.0 kmh 29.56 in1001.0 mb 0.00 in0.0 mm 0.00 in0.0 mm 0.11 in2.8 mm
06:50 AM 58.8°F14.9°C 55.4°F13.0°C 88% 1.7 mph WSW2.7 kmh WSW 3.1 mph5.0 kmh 29.56 in1001.0 mb 0.00 in0.0 mm 0.00 in0.0 mm 0.11 in2.8 mm
06:55 AM 59.0°F15.0°C 55.4°F13.0°C 88% 2.7 mph WSW4.3 kmh WSW 5.4 mph8.7 kmh 29.56 in1001.0 mb 0.00 in0.0 mm 0.00 in0.0 mm 0.11 in2.8 mm
07:00 AM 59.0°F15.0°C 55.4°F13.0°C 87% 3.4 mph WSW5.5 kmh WSW 5.4 mph8.7 kmh 29.56 in1001.0 mb 0.00 in0.0 mm 0.00 in0.0 mm 0.11 in2.8 mm
07:05 AM 59.0°F15.0°C 55.4°F13.0°C 87% 3.3 mph WSW5.3 kmh WSW 4.7 mph7.6 kmh 29.56 in1001.0 mb 0.00 in0.0 mm 0.00 in0.0 mm 0.11 in2.8 mm
07:10 AM 59.0°F15.0°C 55.4°F13.0°C 87% 3.7 mph WSW6.0 kmh WSW 7.6 mph12.2 kmh 29.56 in1001.0 mb 0.00 in0.0 mm 0.00 in0.0 mm 0.11 in2.8 mm
07:15 AM 59.4°F15.2°C 55.4°F13.0°C 87% 3.9 mph WSW6.3 kmh WSW 7.6 mph12.2 kmh 29.56 in1001.0 mb 0.00 in0.0 mm 0.00 in0.0 mm 0.11 in2.8 mm
07:20 AM 59.7°F15.4°C 55.4°F13.0°C 87% 3.6 mph WSW5.8 kmh WSW 4.9 mph7.9 kmh 29.56 in1001.0 mb 0.00 in0.0 mm 0.00 in0.0 mm 0.11 in2.8 mm
07:25 AM 59.9°F15.5°C 55.4°F13.0°C 86% 4.1 mph WSW6.6 kmh WSW 9.6 mph15.4 kmh 29.56 in1001.0 mb 0.00 in0.0 mm 0.00 in0.0 mm 0.11 in2.8 mm
07:30 AM 59.9°F15.5°C 55.4°F13.0°C 86% 5.6 mph WSW9.0 kmh WSW 9.6 mph15.4 kmh 29.56 in1001.0 mb 0.00 in0.0 mm 0.00 in0.0 mm 0.11 in2.8 mm
07:35 AM 60.1°F15.6°C 55.4°F13.0°C 85% 6.0 mph WSW9.7 kmh WSW 12.3 mph19.8 kmh 29.56 in1001.0 mb 0.00 in0.0 mm 0.00 in0.0 mm 0.11 in2.8 mm
07:40 AM 60.3°F15.7°C 55.4°F13.0°C 85% 5.4 mph WSW8.7 kmh WSW 12.3 mph19.8 kmh 29.59 in1002.0 mb 0.00 in0.0 mm 0.00 in0.0 mm 0.11 in2.8 mm
07:45 AM 60.3°F15.7°C 55.4°F13.0°C 85% 4.8 mph WSW7.7 kmh WSW 6.5 mph10.5 kmh 29.59 in1002.0 mb 0.00 in0.0 mm 0.00 in0.0 mm 0.11 in2.8 mm
07:50 AM 60.6°F15.9°C 57.2°F14.0°C 85% 5.2 mph WSW8.4 kmh WSW 7.8 mph12.6 kmh 29.59 in1002.0 mb 0.00 in0.0 mm 0.00 in0.0 mm 0.11 in2.8 mm
07:55 AM 60.8°F16.0°C 57.2°F14.0°C 85% 4.9 mph WSW7.9 kmh WSW 7.8 mph12.6 kmh 29.59 in1002.0 mb 0.00 in0.0 mm 0.00 in0.0 mm 0.11 in2.8 mm
08:00 AM 60.8°F16.0°C 57.2°F14.0°C 85% 4.3 mph WSW6.9 kmh WSW 7.4 mph11.9 kmh 29.59 in1002.0 mb 0.00 in0.0 mm 0.00 in0.0 mm 0.11 in2.8 mm
08:05 AM 60.8°F16.0°C 55.4°F13.0°C 84% 3.8 mph W6.1 kmh W 7.4 mph11.9 kmh 29.59 in1002.0 mb 0.00 in0.0 mm 0.00 in0.0 mm 0.11 in2.8 mm
08:10 AM 61.0°F16.1°C 55.4°F13.0°C 84% 5.1 mph W8.2 kmh W 7.8 mph12.6 kmh 29.59 in1002.0 mb 0.00 in0.0 mm 0.00 in0.0 mm 0.11 in2.8 mm
08:15 AM 61.2°F16.2°C 57.2°F14.0°C 84% 5.6 mph W9.0 kmh W 7.8 mph12.6 kmh 29.59 in1002.0 mb 0.00 in0.0 mm 0.00 in0.0 mm 0.11 in2.8 mm
08:20 AM 61.5°F16.4°C 57.2°F14.0°C 84% 5.9 mph WSW9.5 kmh WSW 10.1 mph16.3 kmh 29.59 in1002.0 mb 0.00 in0.0 mm 0.00 in0.0 mm 0.11 in2.8 mm
08:25 AM 61.9°F16.6°C 57.2°F14.0°C 84% 6.0 mph WSW9.7 kmh WSW 10.1 mph16.3 kmh 29.59 in1002.0 mb 0.00 in0.0 mm 0.00 in0.0 mm 0.11 in2.8 mm
08:30 AM 62.1°F16.7°C 57.2°F14.0°C 84% 5.4 mph WSW8.7 kmh WSW 10.1 mph16.3 kmh 29.59 in1002.0 mb 0.00 in0.0 mm 0.00 in0.0 mm 0.11 in2.8 mm
08:35 AM 61.9°F16.6°C 57.2°F14.0°C 83% 6.2 mph W10.0 kmh W 9.8 mph15.8 kmh 29.59 in1002.0 mb 0.00 in0.0 mm 0.00 in0.0 mm 0.11 in2.8 mm
08:40 AM 61.7°F16.5°C 57.2°F14.0°C 83% 7.2 mph WSW11.6 kmh WSW 9.8 mph15.8 kmh 29.59 in1002.0 mb 0.00 in0.0 mm 0.00 in0.0 mm 0.11 in2.8 mm
08:45 AM 61.5°F16.4°C 55.4°F13.0°C 83% 7.3 mph W11.7 kmh W 9.8 mph15.8 kmh 29.59 in1002.0 mb 0.00 in0.0 mm 0.00 in0.0 mm 0.11 in2.8 mm
08:50 AM 61.3°F16.3°C 55.4°F13.0°C 83% 7.5 mph W12.1 kmh W 10.7 mph17.2 kmh 29.59 in1002.0 mb 0.00 in0.0 mm 0.00 in0.0 mm 0.11 in2.8 mm
08:55 AM 61.2°F16.2°C 57.2°F14.0°C 84% 6.9 mph W11.1 kmh W 10.7 mph17.2 kmh 29.62 in1003.0 mb 0.00 in0.0 mm 0.00 in0.0 mm 0.11 in2.8 mm
09:00 AM 61.9°F16.6°C 57.2°F14.0°C 84% 6.2 mph W10.0 kmh W 10.1 mph16.3 kmh 29.62 in1003.0 mb 0.00 in0.0 mm 0.00 in0.0 mm 0.11 in2.8 mm
09:05 AM 62.4°F16.9°C 57.2°F14.0°C 84% 6.1 mph W9.8 kmh W 10.1 mph16.3 kmh 29.62 in1003.0 mb 0.00 in0.0 mm 0.00 in0.0 mm 0.11 in2.8 mm
09:10 AM 62.2°F16.8°C 57.2°F14.0°C 84% 6.1 mph W9.8 kmh W 10.3 mph16.6 kmh 29.62 in1003.0 mb 0.00 in0.0 mm 0.00 in0.0 mm 0.11 in2.8 mm
09:15 AM 62.2°F16.8°C 57.2°F14.0°C 84% 6.3 mph WSW10.1 kmh WSW 11.0 mph17.7 kmh 29.62 in1003.0 mb 0.00 in0.0 mm 0.00 in0.0 mm 0.11 in2.8 mm
09:20 AM 61.9°F16.6°C 57.2°F14.0°C 83% 8.1 mph WSW13.0 kmh WSW 12.5 mph20.1 kmh 29.62 in1003.0 mb 0.00 in0.0 mm 0.00 in0.0 mm 0.11 in2.8 mm
09:25 AM 62.6°F17.0°C 57.2°F14.0°C 83% 8.5 mph WSW13.7 kmh WSW 12.5 mph20.1 kmh 29.62 in1003.0 mb 0.00 in0.0 mm 0.00 in0.0 mm 0.11 in2.8 mm
09:30 AM 62.4°F16.9°C 57.2°F14.0°C 83% 7.5 mph WSW12.1 kmh WSW 11.0 mph17.7 kmh 29.62 in1003.0 mb 0.00 in0.0 mm 0.00 in0.0 mm 0.11 in2.8 mm
09:35 AM 62.1°F16.7°C 57.2°F14.0°C 83% 8.2 mph WSW13.2 kmh WSW 11.9 mph19.2 kmh 29.62 in1003.0 mb 0.00 in0.0 mm 0.00 in0.0 mm 0.11 in2.8 mm
09:40 AM 62.4°F16.9°C 57.2°F14.0°C 82% 8.4 mph WSW13.5 kmh WSW 11.9 mph19.2 kmh 29.62 in1003.0 mb 0.00 in0.0 mm 0.00 in0.0 mm 0.11 in2.8 mm
09:45 AM 62.6°F17.0°C 57.2°F14.0°C 81% 6.6 mph WSW10.6 kmh WSW 8.7 mph14.0 kmh 29.62 in1003.0 mb 0.00 in0.0 mm 0.00 in0.0 mm 0.11 in2.8 mm
09:50 AM 63.0°F17.2°C 57.2°F14.0°C 81% 7.5 mph W12.1 kmh W 10.3 mph16.6 kmh 29.62 in1003.0 mb 0.00 in0.0 mm 0.00 in0.0 mm 0.11 in2.8 mm
09:55 AM 64.4°F18.0°C 57.2°F14.0°C 79% 8.4 mph W13.5 kmh W 10.3 mph16.6 kmh 29.62 in1003.0 mb 0.00 in0.0 mm 0.00 in0.0 mm 0.11 in2.8 mm
10:00 AM 65.3°F18.5°C 59.0°F15.0°C 78% 8.8 mph WSW14.2 kmh WSW 12.8 mph20.6 kmh 29.62 in1003.0 mb 0.00 in0.0 mm 0.00 in0.0 mm 0.11 in2.8 mm
10:05 AM 64.4°F18.0°C 57.2°F14.0°C 78% 9.1 mph WSW14.6 kmh WSW 12.8 mph20.6 kmh 29.62 in1003.0 mb 0.00 in0.0 mm 0.00 in0.0 mm 0.11 in2.8 mm
10:10 AM 63.9°F17.7°C 57.2°F14.0°C 78% 8.7 mph WSW14.0 kmh WSW 12.3 mph19.8 kmh 29.62 in1003.0 mb 0.00 in0.0 mm 0.00 in0.0 mm 0.11 in2.8 mm
10:15 AM 63.9°F17.7°C 57.2°F14.0°C 77% 7.9 mph WSW12.7 kmh WSW 12.5 mph20.1 kmh 29.62 in1003.0 mb 0.00 in0.0 mm 0.00 in0.0 mm 0.11 in2.8 mm
10:20 AM 63.9°F17.7°C 57.2°F14.0°C 77% 7.1 mph WSW11.4 kmh WSW 12.5 mph20.1 kmh 29.62 in1003.0 mb 0.00 in0.0 mm 0.00 in0.0 mm 0.11 in2.8 mm
10:25 AM 63.9°F17.7°C 55.4°F13.0°C 76% 7.3 mph W11.7 kmh W 12.5 mph20.1 kmh 29.65 in1004.1 mb 0.00 in0.0 mm 0.00 in0.0 mm 0.11 in2.8 mm
10:30 AM 63.9°F17.7°C 55.4°F13.0°C 76% 7.5 mph WSW12.1 kmh WSW 12.5 mph20.1 kmh 29.65 in1004.1 mb 0.00 in0.0 mm 0.00 in0.0 mm 0.11 in2.8 mm
10:35 AM 63.1°F17.3°C 55.4°F13.0°C 76% 8.7 mph W14.0 kmh W 16.1 mph25.9 kmh 29.65 in1004.1 mb 0.00 in0.0 mm 0.00 in0.0 mm 0.11 in2.8 mm
10:40 AM 62.6°F17.0°C 55.4°F13.0°C 75% 10.8 mph WNW17.4 kmh WNW 16.1 mph25.9 kmh 29.65 in1004.1 mb 0.00 in0.0 mm 0.00 in0.0 mm 0.11 in2.8 mm
10:45 AM 62.8°F17.1°C 55.4°F13.0°C 75% 10.2 mph W16.4 kmh W 13.4 mph21.6 kmh 29.65 in1004.1 mb 0.00 in0.0 mm 0.00 in0.0 mm 0.11 in2.8 mm
10:50 AM 64.0°F17.8°C 55.4°F13.0°C 74% 8.8 mph W14.2 kmh W 13.0 mph20.9 kmh 29.65 in1004.1 mb 0.00 in0.0 mm 0.00 in0.0 mm 0.11 in2.8 mm
10:55 AM 63.7°F17.6°C 55.4°F13.0°C 73% 8.5 mph W13.7 kmh W 12.5 mph20.1 kmh 29.65 in1004.1 mb 0.00 in0.0 mm 0.00 in0.0 mm 0.11 in2.8 mm
11:00 AM 63.5°F17.5°C 55.4°F13.0°C 72% 8.4 mph W13.5 kmh W 12.5 mph20.1 kmh 29.65 in1004.1 mb 0.00 in0.0 mm 0.00 in0.0 mm 0.11 in2.8 mm
11:05 AM 63.0°F17.2°C 55.4°F13.0°C 72% 8.3 mph W13.4 kmh W 12.5 mph20.1 kmh 29.65 in1004.1 mb 0.00 in0.0 mm 0.00 in0.0 mm 0.11 in2.8 mm
11:10 AM 63.0°F17.2°C 55.4°F13.0°C 73% 7.2 mph W11.6 kmh W 11.0 mph17.7 kmh 29.68 in1005.1 mb 0.00 in0.0 mm 0.00 in0.0 mm 0.11 in2.8 mm
11:15 AM 63.0°F17.2°C 53.6°F12.0°C 70% 8.8 mph WSW14.2 kmh WSW 13.2 mph21.2 kmh 29.68 in1005.1 mb 0.00 in0.0 mm 0.00 in0.0 mm 0.11 in2.8 mm
11:20 AM 64.4°F18.0°C 53.6°F12.0°C 69% 10.1 mph WSW16.3 kmh WSW 13.2 mph21.2 kmh 29.68 in1005.1 mb 0.00 in0.0 mm 0.00 in0.0 mm 0.11 in2.8 mm
11:25 AM 64.4°F18.0°C 53.6°F12.0°C 69% 9.0 mph W14.5 kmh W 13.2 mph21.2 kmh 29.68 in1005.1 mb 0.00 in0.0 mm 0.00 in0.0 mm 0.11 in2.8 mm
11:30 AM 64.6°F18.1°C 53.6°F12.0°C 68% 10.4 mph WSW16.7 kmh WSW 19.5 mph31.4 kmh 29.68 in1005.1 mb 0.00 in0.0 mm 0.00 in0.0 mm 0.11 in2.8 mm
11:35 AM 65.3°F18.5°C 55.4°F13.0°C 67% 12.2 mph W19.6 kmh W 19.5 mph31.4 kmh 29.68 in1005.1 mb 0.00 in0.0 mm 0.00 in0.0 mm 0.11 in2.8 mm
11:40 AM 65.1°F18.4°C 53.6°F12.0°C 67% 9.8 mph WNW15.8 kmh WNW 17.7 mph28.5 kmh 29.68 in1005.1 mb 0.00 in0.0 mm 0.00 in0.0 mm 0.11 in2.8 mm
11:45 AM 65.3°F18.5°C 55.4°F13.0°C 67% 7.1 mph W11.4 kmh W 13.2 mph21.2 kmh 29.68 in1005.1 mb 0.00 in0.0 mm 0.00 in0.0 mm 0.11 in2.8 mm
11:50 AM 64.8°F18.2°C 53.6°F12.0°C 66% 9.1 mph WSW14.6 kmh WSW 15.4 mph24.8 kmh 29.68 in1005.1 mb 0.00 in0.0 mm 0.00 in0.0 mm 0.11 in2.8 mm
11:55 AM 64.6°F18.1°C 51.8°F11.0°C 64% 11.6 mph WSW18.7 kmh WSW 15.4 mph24.8 kmh 29.71 in1006.1 mb 0.00 in0.0 mm 0.00 in0.0 mm 0.11 in2.8 mm
12:00 PM 64.0°F17.8°C 51.8°F11.0°C 65% 9.9 mph W15.9 kmh W 15.2 mph24.5 kmh 29.71 in1006.1 mb 0.00 in0.0 mm 0.00 in0.0 mm 0.11 in2.8 mm
12:05 PM 64.9°F18.3°C 53.6°F12.0°C 65% 9.7 mph WSW15.6 kmh WSW 15.2 mph24.5 kmh 29.71 in1006.1 mb 0.00 in0.0 mm 0.00 in0.0 mm 0.11 in2.8 mm
12:10 PM 66.6°F19.2°C 53.6°F12.0°C 62% 11.1 mph WSW17.9 kmh WSW 17.4 mph28.0 kmh 29.71 in1006.1 mb 0.00 in0.0 mm 0.00 in0.0 mm 0.11 in2.8 mm
12:15 PM 67.6°F19.8°C 53.6°F12.0°C 61% 11.3 mph W18.2 kmh W 17.4 mph28.0 kmh 29.71 in1006.1 mb 0.00 in0.0 mm 0.00 in0.0 mm 0.11 in2.8 mm
12:20 PM 68.7°F20.4°C 55.4°F13.0°C 60% 10.1 mph W16.3 kmh W 15.7 mph25.3 kmh 29.71 in1006.1 mb 0.00 in0.0 mm 0.00 in0.0 mm 0.11 in2.8 mm
12:25 PM 68.9°F20.5°C 55.4°F13.0°C 59% 10.4 mph W16.7 kmh W 17.0 mph27.4 kmh 29.71 in1006.1 mb 0.00 in0.0 mm 0.00 in0.0 mm 0.11 in2.8 mm
12:30 PM 68.7°F20.4°C 53.6°F12.0°C 58% 10.4 mph W16.7 kmh W 17.9 mph28.8 kmh 29.71 in1006.1 mb 0.00 in0.0 mm 0.00 in0.0 mm 0.11 in2.8 mm
12:35 PM 68.9°F20.5°C 53.6°F12.0°C 58% 9.3 mph W15.0 kmh W 17.9 mph28.8 kmh 29.71 in1006.1 mb 0.00 in0.0 mm 0.00 in0.0 mm 0.11 in2.8 mm
12:40 PM 68.0°F20.0°C 53.6°F12.0°C 59% 8.3 mph W13.4 kmh W 10.5 mph16.9 kmh 29.71 in1006.1 mb 0.00 in0.0 mm 0.00 in0.0 mm 0.11 in2.8 mm
12:45 PM 68.0°F20.0°C 53.6°F12.0°C 59% 8.7 mph W14.0 kmh W 17.2 mph27.7 kmh 29.71 in1006.1 mb 0.00 in0.0 mm 0.00 in0.0 mm 0.11 in2.8 mm
12:50 PM 70.2°F21.2°C 55.4°F13.0°C 58% 9.4 mph W15.1 kmh W 17.2 mph27.7 kmh 29.71 in1006.1 mb 0.00 in0.0 mm 0.00 in0.0 mm 0.11 in2.8 mm
12:55 PM 69.4°F20.8°C 53.6°F12.0°C 58% 8.1 mph WSW13.0 kmh WSW 12.3 mph19.8 kmh 29.74 in1007.1 mb 0.00 in0.0 mm 0.00 in0.0 mm 0.11 in2.8 mm
01:00 PM 70.7°F21.5°C 55.4°F13.0°C 57% 7.7 mph WNW12.4 kmh WNW 11.0 mph17.7 kmh 29.74 in1007.1 mb 0.00 in0.0 mm 0.00 in0.0 mm 0.11 in2.8 mm
01:05 PM 72.1°F22.3°C 55.4°F13.0°C 56% 8.5 mph WNW13.7 kmh WNW 11.0 mph17.7 kmh 29.74 in1007.1 mb 0.00 in0.0 mm 0.00 in0.0 mm 0.11 in2.8 mm
01:10 PM 72.0°F22.2°C 55.4°F13.0°C 55% 9.1 mph W14.6 kmh W 14.3 mph23.0 kmh 29.74 in1007.1 mb 0.00 in0.0 mm 0.00 in0.0 mm 0.11 in2.8 mm
01:15 PM 73.0°F22.8°C 55.4°F13.0°C 54% 9.1 mph W14.6 kmh W 14.8 mph23.8 kmh 29.74 in1007.1 mb 0.00 in0.0 mm 0.00 in0.0 mm 0.11 in2.8 mm
01:20 PM 71.1°F21.7°C 53.6°F12.0°C 55% 9.2 mph W14.8 kmh W 16.8 mph27.0 kmh 29.74 in1007.1 mb 0.00 in0.0 mm 0.00 in0.0 mm 0.11 in2.8 mm
01:25 PM 69.6°F20.9°C 53.6°F12.0°C 55% 10.4 mph WNW16.7 kmh WNW 16.8 mph27.0 kmh 29.74 in1007.1 mb 0.00 in0.0 mm 0.00 in0.0 mm 0.11 in2.8 mm
01:30 PM 71.6°F22.0°C 55.4°F13.0°C 54% 9.0 mph WNW14.5 kmh WNW 14.1 mph22.7 kmh 29.74 in1007.1 mb 0.00 in0.0 mm 0.00 in0.0 mm 0.11 in2.8 mm
01:35 PM 72.1°F22.3°C 55.4°F13.0°C 53% 9.5 mph WNW15.3 kmh WNW 19.0 mph30.6 kmh 29.74 in1007.1 mb 0.00 in0.0 mm 0.00 in0.0 mm 0.11 in2.8 mm
01:40 PM 72.7°F22.6°C 55.4°F13.0°C 53% 9.9 mph W15.9 kmh W 19.0 mph30.6 kmh 29.74 in1007.1 mb 0.00 in0.0 mm 0.00 in0.0 mm 0.11 in2.8 mm
01:45 PM 72.3°F22.4°C 55.4°F13.0°C 53% 8.9 mph W14.3 kmh W 13.0 mph20.9 kmh 29.74 in1007.1 mb 0.00 in0.0 mm 0.00 in0.0 mm 0.11 in2.8 mm
01:50 PM 71.2°F21.8°C 53.6°F12.0°C 52% 10.1 mph W16.3 kmh W 15.2 mph24.5 kmh 29.74 in1007.1 mb 0.00 in0.0 mm 0.00 in0.0 mm 0.11 in2.8 mm
01:55 PM 69.6°F20.9°C 51.8°F11.0°C 53% 11.5 mph WNW18.5 kmh WNW 15.2 mph24.5 kmh 29.74 in1007.1 mb 0.00 in0.0 mm 0.00 in0.0 mm 0.11 in2.8 mm
02:00 PM 69.1°F20.6°C 51.8°F11.0°C 53% 9.9 mph W15.9 kmh W 14.5 mph23.3 kmh 29.74 in1007.1 mb 0.00 in0.0 mm 0.00 in0.0 mm 0.11 in2.8 mm
02:05 PM 68.7°F20.4°C 51.8°F11.0°C 53% 8.2 mph W13.2 kmh W 14.5 mph23.3 kmh 29.74 in1007.1 mb 0.00 in0.0 mm 0.00 in0.0 mm 0.11 in2.8 mm
02:10 PM 68.7°F20.4°C 51.8°F11.0°C 54% 8.2 mph W13.2 kmh W 12.1 mph19.5 kmh 29.74 in1007.1 mb 0.00 in0.0 mm 0.00 in0.0 mm 0.11 in2.8 mm
02:15 PM 68.0°F20.0°C 51.8°F11.0°C 54% 8.9 mph W14.3 kmh W 12.1 mph19.5 kmh 29.74 in1007.1 mb 0.00 in0.0 mm 0.00 in0.0 mm 0.11 in2.8 mm
02:20 PM 67.6°F19.8°C 50.0°F10.0°C 54% 9.2 mph W14.8 kmh W 12.5 mph20.1 kmh 29.74 in1007.1 mb 0.00 in0.0 mm 0.00 in0.0 mm 0.11 in2.8 mm
02:25 PM 67.6°F19.8°C 50.0°F10.0°C 54% 9.5 mph WNW15.3 kmh WNW 12.5 mph20.1 kmh 29.77 in1008.1 mb 0.00 in0.0 mm 0.00 in0.0 mm 0.11 in2.8 mm
02:30 PM 67.6°F19.8°C 50.0°F10.0°C 55% 8.1 mph NW13.0 kmh NW 13.2 mph21.2 kmh 29.77 in1008.1 mb 0.00 in0.0 mm 0.00 in0.0 mm 0.11 in2.8 mm
02:35 PM 67.6°F19.8°C 50.0°F10.0°C 54% 6.4 mph WNW10.3 kmh WNW 13.2 mph21.2 kmh 29.77 in1008.1 mb 0.00 in0.0 mm 0.00 in0.0 mm 0.11 in2.8 mm
02:40 PM 67.8°F19.9°C 51.8°F11.0°C 55% 6.2 mph W10.0 kmh W 10.1 mph16.3 kmh 29.77 in1008.1 mb 0.00 in0.0 mm 0.00 in0.0 mm 0.11 in2.8 mm
02:45 PM 67.5°F19.7°C 50.0°F10.0°C 55% 7.3 mph W11.7 kmh W 11.0 mph17.7 kmh 29.77 in1008.1 mb 0.00 in0.0 mm 0.00 in0.0 mm 0.11 in2.8 mm
02:50 PM 67.1°F19.5°C 50.0°F10.0°C 55% 8.2 mph W13.2 kmh W 11.0 mph17.7 kmh 29.77 in1008.1 mb 0.00 in0.0 mm 0.00 in0.0 mm 0.11 in2.8 mm
02:55 PM 66.7°F19.3°C 50.0°F10.0°C 54% 8.9 mph WNW14.3 kmh WNW 13.2 mph21.2 kmh 29.77 in1008.1 mb 0.00 in0.0 mm 0.00 in0.0 mm 0.11 in2.8 mm
03:00 PM 66.9°F19.4°C 50.0°F10.0°C 53% 9.6 mph WNW15.4 kmh WNW 13.2 mph21.2 kmh 29.77 in1008.1 mb 0.00 in0.0 mm 0.00 in0.0 mm 0.11 in2.8 mm
03:05 PM 67.1°F19.5°C 50.0°F10.0°C 53% 8.3 mph W13.4 kmh W 15.2 mph24.5 kmh 29.77 in1008.1 mb 0.00 in0.0 mm 0.00 in0.0 mm 0.11 in2.8 mm
03:10 PM 69.3°F20.7°C 51.8°F11.0°C 52% 8.4 mph WNW13.5 kmh WNW 15.2 mph24.5 kmh 29.77 in1008.1 mb 0.00 in0.0 mm 0.00 in0.0 mm 0.11 in2.8 mm
03:15 PM 68.2°F20.1°C 50.0°F10.0°C 52% 7.8 mph WNW12.6 kmh WNW 14.5 mph23.3 kmh 29.77 in1008.1 mb 0.00 in0.0 mm 0.00 in0.0 mm 0.11 in2.8 mm
03:20 PM 67.5°F19.7°C 50.0°F10.0°C 53% 6.8 mph WNW10.9 kmh WNW 10.3 mph16.6 kmh 29.77 in1008.1 mb 0.00 in0.0 mm 0.00 in0.0 mm 0.11 in2.8 mm
03:25 PM 67.5°F19.7°C 50.0°F10.0°C 52% 6.7 mph W10.8 kmh W 9.2 mph14.8 kmh 29.80 in1009.1 mb 0.00 in0.0 mm 0.00 in0.0 mm 0.11 in2.8 mm
03:30 PM 69.3°F20.7°C 51.8°F11.0°C 52% 6.8 mph WSW10.9 kmh WSW 12.3 mph19.8 kmh 29.80 in1009.1 mb 0.00 in0.0 mm 0.00 in0.0 mm 0.11 in2.8 mm
03:35 PM 69.3°F20.7°C 50.0°F10.0°C 51% 8.4 mph W13.5 kmh W 13.2 mph21.2 kmh 29.80 in1009.1 mb 0.00 in0.0 mm 0.00 in0.0 mm 0.11 in2.8 mm
03:40 PM 69.6°F20.9°C 51.8°F11.0°C 51% 8.6 mph W13.8 kmh W 13.2 mph21.2 kmh 29.80 in1009.1 mb 0.00 in0.0 mm 0.00 in0.0 mm 0.11 in2.8 mm
03:45 PM 69.8°F21.0°C 50.0°F10.0°C 50% 7.7 mph W12.4 kmh W 14.3 mph23.0 kmh 29.80 in1009.1 mb 0.00 in0.0 mm 0.00 in0.0 mm 0.11 in2.8 mm
03:50 PM 69.1°F20.6°C 50.0°F10.0°C 51% 8.8 mph W14.2 kmh W 17.2 mph27.7 kmh 29.80 in1009.1 mb 0.00 in0.0 mm 0.00 in0.0 mm 0.11 in2.8 mm
03:55 PM 68.9°F20.5°C 50.0°F10.0°C 51% 9.3 mph W15.0 kmh W 17.2 mph27.7 kmh 29.80 in1009.1 mb 0.00 in0.0 mm 0.00 in0.0 mm 0.11 in2.8 mm
04:00 PM 69.3°F20.7°C 50.0°F10.0°C 50% 8.6 mph WNW13.8 kmh WNW 11.0 mph17.7 kmh 29.80 in1009.1 mb 0.00 in0.0 mm 0.00 in0.0 mm 0.11 in2.8 mm
04:05 PM 69.4°F20.8°C 50.0°F10.0°C 51% 8.4 mph W13.5 kmh W 11.0 mph17.7 kmh 29.80 in1009.1 mb 0.00 in0.0 mm 0.00 in0.0 mm 0.11 in2.8 mm
04:10 PM 68.5°F20.3°C 50.0°F10.0°C 50% 8.9 mph W14.3 kmh W 13.2 mph21.2 kmh 29.80 in1009.1 mb 0.00 in0.0 mm 0.00 in0.0 mm 0.11 in2.8 mm
04:15 PM 68.2°F20.1°C 50.0°F10.0°C 51% 7.3 mph W11.7 kmh W 13.2 mph21.2 kmh 29.80 in1009.1 mb 0.00 in0.0 mm 0.00 in0.0 mm 0.11 in2.8 mm
04:20 PM 67.8°F19.9°C 50.0°F10.0°C 51% 6.3 mph NW10.1 kmh NW 13.0 mph20.9 kmh 29.80 in1009.1 mb 0.00 in0.0 mm 0.00 in0.0 mm 0.11 in2.8 mm
04:25 PM 67.1°F19.5°C 48.2°F9.0°C 50% 7.9 mph WNW12.7 kmh WNW 13.0 mph20.9 kmh 29.83 in1010.2 mb 0.00 in0.0 mm 0.00 in0.0 mm 0.11 in2.8 mm
04:30 PM 66.6°F19.2°C 48.2°F9.0°C 50% 7.4 mph WNW11.9 kmh WNW 13.0 mph20.9 kmh 29.83 in1010.2 mb 0.00 in0.0 mm 0.00 in0.0 mm 0.11 in2.8 mm
04:35 PM 66.6°F19.2°C 48.2°F9.0°C 50% 7.3 mph WNW11.7 kmh WNW 13.0 mph20.9 kmh 29.83 in1010.2 mb 0.00 in0.0 mm 0.00 in0.0 mm 0.11 in2.8 mm
04:40 PM 66.7°F19.3°C 48.2°F9.0°C 50% 6.1 mph NW9.8 kmh NW 9.8 mph15.8 kmh 29.83 in1010.2 mb 0.00 in0.0 mm 0.00 in0.0 mm 0.11 in2.8 mm
04:45 PM 67.1°F19.5°C 48.2°F9.0°C 51% 4.7 mph NW7.6 kmh NW 9.6 mph15.4 kmh 29.83 in1010.2 mb 0.00 in0.0 mm 0.00 in0.0 mm 0.11 in2.8 mm
04:50 PM 67.1°F19.5°C 48.2°F9.0°C 51% 4.8 mph WNW7.7 kmh WNW 6.5 mph10.5 kmh 29.83 in1010.2 mb 0.00 in0.0 mm 0.00 in0.0 mm 0.11 in2.8 mm
04:55 PM 67.1°F19.5°C 48.2°F9.0°C 51% 6.0 mph W9.7 kmh W 7.8 mph12.6 kmh 29.83 in1010.2 mb 0.00 in0.0 mm 0.00 in0.0 mm 0.11 in2.8 mm
05:00 PM 67.1°F19.5°C 48.2°F9.0°C 50% 8.3 mph W13.4 kmh W 13.2 mph21.2 kmh 29.83 in1010.2 mb 0.00 in0.0 mm 0.00 in0.0 mm 0.11 in2.8 mm
05:05 PM 66.6°F19.2°C 48.2°F9.0°C 50% 8.7 mph W14.0 kmh W 13.2 mph21.2 kmh 29.83 in1010.2 mb 0.00 in0.0 mm 0.00 in0.0 mm 0.11 in2.8 mm
05:10 PM 66.2°F19.0°C 48.2°F9.0°C 50% 7.7 mph WNW12.4 kmh WNW 13.2 mph21.2 kmh 29.83 in1010.2 mb 0.00 in0.0 mm 0.00 in0.0 mm 0.11 in2.8 mm
05:15 PM 66.4°F19.1°C 48.2°F9.0°C 50% 5.1 mph W8.2 kmh W 10.7 mph17.2 kmh 29.83 in1010.2 mb 0.00 in0.0 mm 0.00 in0.0 mm 0.11 in2.8 mm
05:20 PM 66.0°F18.9°C 48.2°F9.0°C 52% 6.9 mph WSW11.1 kmh WSW 12.5 mph20.1 kmh 29.83 in1010.2 mb 0.00 in0.0 mm 0.00 in0.0 mm 0.11 in2.8 mm
05:25 PM 65.5°F18.6°C 48.2°F9.0°C 52% 8.2 mph W13.2 kmh W 12.5 mph20.1 kmh 29.83 in1010.2 mb 0.00 in0.0 mm 0.00 in0.0 mm 0.11 in2.8 mm
05:30 PM 65.1°F18.4°C 48.2°F9.0°C 52% 6.2 mph NW10.0 kmh NW 11.0 mph17.7 kmh 29.83 in1010.2 mb 0.00 in0.0 mm 0.00 in0.0 mm 0.11 in2.8 mm
05:35 PM 65.1°F18.4°C 48.2°F9.0°C 52% 5.7 mph W9.2 kmh W 9.8 mph15.8 kmh 29.83 in1010.2 mb 0.00 in0.0 mm 0.00 in0.0 mm 0.11 in2.8 mm
05:40 PM 64.9°F18.3°C 48.2°F9.0°C 52% 6.1 mph WSW9.8 kmh WSW 10.7 mph17.2 kmh 29.86 in1011.2 mb 0.00 in0.0 mm 0.00 in0.0 mm 0.11 in2.8 mm
05:45 PM 64.8°F18.2°C 48.2°F9.0°C 52% 5.6 mph W9.0 kmh W 10.7 mph17.2 kmh 29.86 in1011.2 mb 0.00 in0.0 mm 0.00 in0.0 mm 0.11 in2.8 mm
05:50 PM 64.8°F18.2°C 48.2°F9.0°C 52% 4.9 mph WNW7.9 kmh WNW 5.8 mph9.3 kmh 29.86 in1011.2 mb 0.00 in0.0 mm 0.00 in0.0 mm 0.11 in2.8 mm
05:55 PM 64.6°F18.1°C 46.4°F8.0°C 52% 4.9 mph W7.9 kmh W 5.8 mph9.3 kmh 29.86 in1011.2 mb 0.00 in0.0 mm 0.00 in0.0 mm 0.11 in2.8 mm
06:00 PM 64.6°F18.1°C 46.4°F8.0°C 52% 6.2 mph WSW10.0 kmh WSW 11.4 mph18.3 kmh 29.86 in1011.2 mb 0.00 in0.0 mm 0.00 in0.0 mm 0.11 in2.8 mm
06:05 PM 64.4°F18.0°C 46.4°F8.0°C 52% 6.4 mph W10.3 kmh W 11.4 mph18.3 kmh 29.86 in1011.2 mb 0.00 in0.0 mm 0.00 in0.0 mm 0.11 in2.8 mm
06:10 PM 64.2°F17.9°C 46.4°F8.0°C 52% 5.5 mph WNW8.9 kmh WNW 11.9 mph19.2 kmh 29.86 in1011.2 mb 0.00 in0.0 mm 0.00 in0.0 mm 0.11 in2.8 mm
06:15 PM 63.9°F17.7°C 46.4°F8.0°C 52% 5.9 mph WNW9.5 kmh WNW 11.9 mph19.2 kmh 29.86 in1011.2 mb 0.00 in0.0 mm 0.00 in0.0 mm 0.11 in2.8 mm
06:20 PM 63.7°F17.6°C 46.4°F8.0°C 52% 6.3 mph W10.1 kmh W 8.7 mph14.0 kmh 29.86 in1011.2 mb 0.00 in0.0 mm 0.00 in0.0 mm 0.11 in2.8 mm
06:25 PM 63.3°F17.4°C 46.4°F8.0°C 52% 5.6 mph WSW9.0 kmh WSW 8.5 mph13.7 kmh 29.86 in1011.2 mb 0.00 in0.0 mm 0.00 in0.0 mm 0.11 in2.8 mm
06:30 PM 63.1°F17.3°C 46.4°F8.0°C 52% 4.3 mph W6.9 kmh W 6.3 mph10.1 kmh 29.86 in1011.2 mb 0.00 in0.0 mm 0.00 in0.0 mm 0.11 in2.8 mm
06:35 PM 62.8°F17.1°C 46.4°F8.0°C 53% 3.9 mph WNW6.3 kmh WNW 5.6 mph9.0 kmh 29.86 in1011.2 mb 0.00 in0.0 mm 0.00 in0.0 mm 0.11 in2.8 mm
06:40 PM 62.6°F17.0°C 46.4°F8.0°C 53% 4.8 mph NW7.7 kmh NW 8.5 mph13.7 kmh 29.89 in1012.2 mb 0.00 in0.0 mm 0.00 in0.0 mm 0.11 in2.8 mm
06:45 PM 62.6°F17.0°C 46.4°F8.0°C 53% 6.0 mph WNW9.7 kmh WNW 8.5 mph13.7 kmh 29.89 in1012.2 mb 0.00 in0.0 mm 0.00 in0.0 mm 0.11 in2.8 mm
06:50 PM 62.4°F16.9°C 46.4°F8.0°C 54% 5.3 mph W8.5 kmh W 7.8 mph12.6 kmh 29.89 in1012.2 mb 0.00 in0.0 mm 0.00 in0.0 mm 0.11 in2.8 mm
06:55 PM 62.1°F16.7°C 46.4°F8.0°C 54% 4.7 mph WSW7.6 kmh WSW 8.1 mph13.0 kmh 29.89 in1012.2 mb 0.00 in0.0 mm 0.00 in0.0 mm 0.11 in2.8 mm
07:00 PM 62.1°F16.7°C 46.4°F8.0°C 54% 4.1 mph W6.6 kmh W 8.1 mph13.0 kmh 29.89 in1012.2 mb 0.00 in0.0 mm 0.00 in0.0 mm 0.11 in2.8 mm
07:05 PM 61.7°F16.5°C 46.4°F8.0°C 54% 3.7 mph W6.0 kmh W 6.5 mph10.5 kmh 29.89 in1012.2 mb 0.00 in0.0 mm 0.00 in0.0 mm 0.11 in2.8 mm
07:10 PM 61.5°F16.4°C 44.6°F7.0°C 54% 3.0 mph W4.8 kmh W 6.5 mph10.5 kmh 29.89 in1012.2 mb 0.00 in0.0 mm 0.00 in0.0 mm 0.11 in2.8 mm
07:15 PM 61.2°F16.2°C 44.6°F7.0°C 55% 1.9 mph WSW3.1 kmh WSW 3.4 mph5.5 kmh 29.89 in1012.2 mb 0.00 in0.0 mm 0.00 in0.0 mm 0.11 in2.8 mm
07:20 PM 60.8°F16.0°C 44.6°F7.0°C 55% 2.4 mph WSW3.9 kmh WSW 4.9 mph7.9 kmh 29.89 in1012.2 mb 0.00 in0.0 mm 0.00 in0.0 mm 0.11 in2.8 mm
07:25 PM 60.6°F15.9°C 44.6°F7.0°C 56% 3.2 mph WSW5.1 kmh WSW 4.9 mph7.9 kmh 29.89 in1012.2 mb 0.00 in0.0 mm 0.00 in0.0 mm 0.11 in2.8 mm
07:30 PM 60.4°F15.8°C 44.6°F7.0°C 56% 3.8 mph WSW6.1 kmh WSW 5.4 mph8.7 kmh 29.89 in1012.2 mb 0.00 in0.0 mm 0.00 in0.0 mm 0.11 in2.8 mm
07:35 PM 59.9°F15.5°C 44.6°F7.0°C 57% 3.1 mph W5.0 kmh W 5.4 mph8.7 kmh 29.89 in1012.2 mb 0.00 in0.0 mm 0.00 in0.0 mm 0.11 in2.8 mm
07:40 PM 59.5°F15.3°C 44.6°F7.0°C 58% 2.4 mph W3.9 kmh W 3.1 mph5.0 kmh 29.89 in1012.2 mb 0.00 in0.0 mm 0.00 in0.0 mm 0.11 in2.8 mm
07:45 PM 59.2°F15.1°C 44.6°F7.0°C 58% 2.7 mph WSW4.3 kmh WSW 4.3 mph6.9 kmh 29.89 in1012.2 mb 0.00 in0.0 mm 0.00 in0.0 mm 0.11 in2.8 mm
07:50 PM 59.0°F15.0°C 44.6°F7.0°C 58% 3.0 mph WSW4.8 kmh WSW 4.3 mph6.9 kmh 29.89 in1012.2 mb 0.00 in0.0 mm 0.00 in0.0 mm 0.11 in2.8 mm
07:55 PM 58.8°F14.9°C 44.6°F7.0°C 59% 3.2 mph WSW5.1 kmh WSW 4.7 mph7.6 kmh 29.89 in1012.2 mb 0.00 in0.0 mm 0.00 in0.0 mm 0.11 in2.8 mm
08:00 PM 58.6°F14.8°C 44.6°F7.0°C 59% 3.3 mph WSW5.3 kmh WSW 5.4 mph8.7 kmh 29.89 in1012.2 mb 0.00 in0.0 mm 0.00 in0.0 mm 0.11 in2.8 mm
08:05 PM 58.5°F14.7°C 44.6°F7.0°C 59% 3.9 mph WSW6.3 kmh WSW 5.6 mph9.0 kmh 29.89 in1012.2 mb 0.00 in0.0 mm 0.00 in0.0 mm 0.11 in2.8 mm
08:10 PM 58.1°F14.5°C 44.6°F7.0°C 60% 3.2 mph WSW5.1 kmh WSW 5.6 mph9.0 kmh 29.89 in1012.2 mb 0.00 in0.0 mm 0.00 in0.0 mm 0.11 in2.8 mm
08:15 PM 57.7°F14.3°C 44.6°F7.0°C 60% 1.7 mph WSW2.7 kmh WSW 3.6 mph5.8 kmh 29.89 in1012.2 mb 0.00 in0.0 mm 0.00 in0.0 mm 0.11 in2.8 mm
08:20 PM 57.6°F14.2°C 44.6°F7.0°C 61% 0.6 mph W1.0 kmh W 2.2 mph3.5 kmh 29.89 in1012.2 mb 0.00 in0.0 mm 0.00 in0.0 mm 0.11 in2.8 mm
08:25 PM 57.4°F14.1°C 44.6°F7.0°C 61% 0.6 mph SSW1.0 kmh SSW 2.5 mph4.0 kmh 29.89 in1012.2 mb 0.00 in0.0 mm 0.00 in0.0 mm 0.11 in2.8 mm
08:30 PM 57.4°F14.1°C 44.6°F7.0°C 61% 1.1 mph S1.8 kmh S 2.9 mph4.7 kmh 29.89 in1012.2 mb 0.00 in0.0 mm 0.00 in0.0 mm 0.11 in2.8 mm
08:35 PM 57.2°F14.0°C 44.6°F7.0°C 61% 1.4 mph SSE2.3 kmh SSE 3.4 mph5.5 kmh 29.89 in1012.2 mb 0.00 in0.0 mm 0.00 in0.0 mm 0.11 in2.8 mm
08:40 PM 57.0°F13.9°C 44.6°F7.0°C 61% 1.6 mph S2.6 kmh S 3.4 mph5.5 kmh 29.89 in1012.2 mb 0.00 in0.0 mm 0.00 in0.0 mm 0.11 in2.8 mm
08:45 PM 56.8°F13.8°C 44.6°F7.0°C 62% 2.2 mph SE3.5 kmh SE 3.4 mph5.5 kmh 29.89 in1012.2 mb 0.00 in0.0 mm 0.00 in0.0 mm 0.11 in2.8 mm
08:50 PM 56.5°F13.6°C 44.6°F7.0°C 62% 1.8 mph SE2.9 kmh SE 3.4 mph5.5 kmh 29.89 in1012.2 mb 0.00 in0.0 mm 0.00 in0.0 mm 0.11 in2.8 mm
08:55 PM 55.9°F13.3°C 44.6°F7.0°C 63% 0.7 mph SSE1.1 kmh SSE 2.0 mph3.2 kmh 29.89 in1012.2 mb 0.00 in0.0 mm 0.00 in0.0 mm 0.11 in2.8 mm
09:00 PM 55.8°F13.2°C 44.6°F7.0°C 63% 0.6 mph WSW1.0 kmh WSW 1.6 mph2.6 kmh 29.89 in1012.2 mb 0.00 in0.0 mm 0.00 in0.0 mm 0.11 in2.8 mm
09:05 PM 55.6°F13.1°C 42.8°F6.0°C 63% 0.4 mph WNW0.6 kmh WNW 1.3 mph2.1 kmh 29.89 in1012.2 mb 0.00 in0.0 mm 0.00 in0.0 mm 0.11 in2.8 mm
09:10 PM 55.4°F13.0°C 44.6°F7.0°C 64% 0.5 mph WSW0.8 kmh WSW 2.5 mph4.0 kmh 29.89 in1012.2 mb 0.00 in0.0 mm 0.00 in0.0 mm 0.11 in2.8 mm
09:15 PM 55.0°F12.8°C 44.6°F7.0°C 64% 0.4 mph SW0.6 kmh SW 2.5 mph4.0 kmh 29.89 in1012.2 mb 0.00 in0.0 mm 0.00 in0.0 mm 0.11 in2.8 mm
09:20 PM 55.0°F12.8°C 44.6°F7.0°C 64% 0.7 mph WSW1.1 kmh WSW 3.6 mph5.8 kmh 29.89 in1012.2 mb 0.00 in0.0 mm 0.00 in0.0 mm 0.11 in2.8 mm
09:25 PM 54.9°F12.7°C 42.8°F6.0°C 64% 1.3 mph WSW2.1 kmh WSW 3.6 mph5.8 kmh 29.89 in1012.2 mb 0.00 in0.0 mm 0.00 in0.0 mm 0.11 in2.8 mm
09:30 PM 54.5°F12.5°C 42.8°F6.0°C 64% 1.3 mph WSW2.1 kmh WSW 2.5 mph4.0 kmh 29.89 in1012.2 mb 0.00 in0.0 mm 0.00 in0.0 mm 0.11 in2.8 mm
09:35 PM 54.7°F12.6°C 42.8°F6.0°C 64% 2.1 mph W3.4 kmh W 6.0 mph9.7 kmh 29.89 in1012.2 mb 0.00 in0.0 mm 0.00 in0.0 mm 0.11 in2.8 mm
09:40 PM 54.9°F12.7°C 42.8°F6.0°C 64% 2.5 mph WSW4.0 kmh WSW 6.0 mph9.7 kmh 29.92 in1013.2 mb 0.00 in0.0 mm 0.00 in0.0 mm 0.11 in2.8 mm
09:45 PM 54.7°F12.6°C 42.8°F6.0°C 64% 1.8 mph SW2.9 kmh SW 3.4 mph5.5 kmh 29.92 in1013.2 mb 0.00 in0.0 mm 0.00 in0.0 mm 0.11 in2.8 mm
09:50 PM 54.3°F12.4°C 42.8°F6.0°C 65% 1.3 mph SE2.1 kmh SE 2.7 mph4.3 kmh 29.92 in1013.2 mb 0.00 in0.0 mm 0.00 in0.0 mm 0.11 in2.8 mm
09:55 PM 54.1°F12.3°C 42.8°F6.0°C 65% 1.8 mph SE2.9 kmh SE 3.1 mph5.0 kmh 29.92 in1013.2 mb 0.00 in0.0 mm 0.00 in0.0 mm 0.11 in2.8 mm
10:00 PM 54.1°F12.3°C 42.8°F6.0°C 65% 1.9 mph SE3.1 kmh SE 3.1 mph5.0 kmh 29.92 in1013.2 mb 0.00 in0.0 mm 0.00 in0.0 mm 0.11 in2.8 mm
10:05 PM 53.8°F12.1°C 42.8°F6.0°C 65% 1.4 mph SE2.3 kmh SE 2.9 mph4.7 kmh 29.92 in1013.2 mb 0.00 in0.0 mm 0.00 in0.0 mm 0.11 in2.8 mm
10:10 PM 53.6°F12.0°C 42.8°F6.0°C 66% 0.3 mph E0.5 kmh E 1.3 mph2.1 kmh 29.92 in1013.2 mb 0.00 in0.0 mm 0.00 in0.0 mm 0.11 in2.8 mm
10:15 PM 53.2°F11.8°C 42.8°F6.0°C 66% Calm Calm -- 29.92 in1013.2 mb 0.00 in0.0 mm 0.00 in0.0 mm 0.11 in2.8 mm
10:20 PM 53.1°F11.7°C 42.8°F6.0°C 67% 0.5 mph NNE0.8 kmh NNE 1.6 mph2.6 kmh 29.92 in1013.2 mb 0.00 in0.0 mm 0.00 in0.0 mm 0.11 in2.8 mm
10:25 PM 53.1°F11.7°C 42.8°F6.0°C 67% 1.2 mph NNE1.9 kmh NNE 2.2 mph3.5 kmh 29.92 in1013.2 mb 0.00 in0.0 mm 0.00 in0.0 mm 0.11 in2.8 mm
10:30 PM 52.9°F11.6°C 42.8°F6.0°C 67% 0.8 mph NNE1.3 kmh NNE 2.2 mph3.5 kmh 29.92 in1013.2 mb 0.00 in0.0 mm 0.00 in0.0 mm 0.11 in2.8 mm
10:35 PM 52.9°F11.6°C 42.8°F6.0°C 68% 0.3 mph E0.5 kmh E 2.0 mph3.2 kmh 29.92 in1013.2 mb 0.00 in0.0 mm 0.00 in0.0 mm 0.11 in2.8 mm
10:40 PM 52.5°F11.4°C 42.8°F6.0°C 68% 0.3 mph ENE0.5 kmh ENE 2.0 mph3.2 kmh 29.92 in1013.2 mb 0.00 in0.0 mm 0.00 in0.0 mm 0.11 in2.8 mm
10:45 PM 52.5°F11.4°C 42.8°F6.0°C 68% 0.4 mph NNE0.6 kmh NNE 1.6 mph2.6 kmh 29.92 in1013.2 mb 0.00 in0.0 mm 0.00 in0.0 mm 0.11 in2.8 mm
10:50 PM 52.5°F11.4°C 42.8°F6.0°C 69% 1.0 mph NNE1.6 kmh NNE 2.5 mph4.0 kmh 29.92 in1013.2 mb 0.00 in0.0 mm 0.00 in0.0 mm 0.11 in2.8 mm
10:55 PM 52.3°F11.3°C 42.8°F6.0°C 69% 1.1 mph NNE1.8 kmh NNE 2.5 mph4.0 kmh 29.92 in1013.2 mb 0.00 in0.0 mm 0.00 in0.0 mm 0.11 in2.8 mm
11:00 PM 52.3°F11.3°C 42.8°F6.0°C 69% 0.6 mph NNE1.0 kmh NNE 2.0 mph3.2 kmh 29.92 in1013.2 mb 0.00 in0.0 mm 0.00 in0.0 mm 0.11 in2.8 mm
11:05 PM 52.2°F11.2°C 42.8°F6.0°C 69% Calm Calm -- 29.92 in1013.2 mb 0.00 in0.0 mm 0.00 in0.0 mm 0.11 in2.8 mm
11:10 PM 52.2°F11.2°C 42.8°F6.0°C 69% Calm Calm -- 29.92 in1013.2 mb 0.00 in0.0 mm 0.00 in0.0 mm 0.11 in2.8 mm
11:15 PM 52.0°F11.1°C 42.8°F6.0°C 69% Calm Calm -- 29.92 in1013.2 mb 0.00 in0.0 mm 0.00 in0.0 mm 0.11 in2.8 mm
11:20 PM 51.8°F11.0°C 42.8°F6.0°C 70% 0.6 mph NNW1.0 kmh NNW 1.6 mph2.6 kmh 29.92 in1013.2 mb 0.00 in0.0 mm 0.00 in0.0 mm 0.11 in2.8 mm
11:25 PM 51.8°F11.0°C 42.8°F6.0°C 70% 0.9 mph NNW1.4 kmh NNW 1.6 mph2.6 kmh 29.89 in1012.2 mb 0.00 in0.0 mm 0.00 in0.0 mm 0.11 in2.8 mm
11:30 PM 51.8°F11.0°C 42.8°F6.0°C 70% 1.3 mph WNW2.1 kmh WNW 2.9 mph4.7 kmh 29.89 in1012.2 mb 0.00 in0.0 mm 0.00 in0.0 mm 0.11 in2.8 mm
11:35 PM 51.8°F11.0°C 42.8°F6.0°C 70% 1.1 mph WNW1.8 kmh WNW 2.9 mph4.7 kmh 29.89 in1012.2 mb 0.00 in0.0 mm 0.00 in0.0 mm 0.11 in2.8 mm
11:40 PM 51.8°F11.0°C 42.8°F6.0°C 70% 0.2 mph NW0.3 kmh NW 1.3 mph2.1 kmh 29.89 in1012.2 mb 0.00 in0.0 mm 0.00 in0.0 mm 0.11 in2.8 mm
11:45 PM 51.8°F11.0°C 42.8°F6.0°C 70% 0.2 mph NW0.3 kmh NW 0.9 mph1.4 kmh 29.89 in1012.2 mb 0.00 in0.0 mm 0.00 in0.0 mm 0.11 in2.8 mm
11:50 PM 51.8°F11.0°C 42.8°F6.0°C 70% 0.2 mph NW0.3 kmh NW 0.9 mph1.4 kmh 29.89 in1012.2 mb 0.00 in0.0 mm 0.00 in0.0 mm 0.11 in2.8 mm
11:55 PM 51.8°F11.0°C 42.8°F6.0°C 70% 0.1 mph NW0.2 kmh NW 0.9 mph1.4 kmh 29.89 in1012.2 mb 0.00 in0.0 mm 0.00 in0.0 mm 0.11 in2.8 mm